Time;durP1;ratioP1;P1;durP2;ratioP2;P2;SDS_P1;SDS_P2;PMS_P1;PMS_P2;Temp;Humidity;BMP_temperature;BMP_pressure;BME280_temperature;BME280_humidity;BME280_pressure;Samples;Min_cycle;Max_cycle;Signal;HPM_P1;HPM_P2
2022/04/25 00:01:34;;;;;;;9.02;6.25;;;8.00;77.30;;;;;;5009048;28;20044;-71
2022/04/25 00:04:00;;;;;;;8.75;5.70;;;8.00;77.50;;;;;;5033196;28;20032;-71
2022/04/25 00:06:25;;;;;;;6.70;5.63;;;8.00;77.50;;;;;;5038761;28;20044;-71
2022/04/25 00:08:51;;;;;;;6.13;5.50;;;8.00;77.50;;;;;;5013738;28;20120;-72
2022/04/25 00:11:16;;;;;;;8.13;5.70;;;8.00;77.60;;;;;;5030517;28;20065;-71
2022/04/25 00:13:42;;;;;;;7.00;5.47;;;8.00;77.60;;;;;;5020189;28;20120;-72
2022/04/25 00:16:07;;;;;;;8.80;6.18;;;8.00;77.70;;;;;;5020717;28;20041;-72
2022/04/25 00:18:33;;;;;;;6.53;5.20;;;8.00;77.70;;;;;;5039144;28;20130;-71
2022/04/25 00:21:00;;;;;;;8.63;6.10;;;8.00;77.80;;;;;;5013644;28;20065;-71
2022/04/25 00:23:26;;;;;;;7.57;6.10;;;8.00;77.80;;;;;;5023077;28;20130;-71
2022/04/25 00:25:51;;;;;;;7.50;6.00;;;8.00;77.90;;;;;;5039736;28;20555;-71
2022/04/25 00:28:17;;;;;;;8.75;5.57;;;7.90;78.00;;;;;;5025986;28;20037;-71
2022/04/25 00:30:42;;;;;;;7.15;5.85;;;7.90;78.10;;;;;;5041494;28;20510;-71
2022/04/25 00:33:08;;;;;;;7.40;5.82;;;7.90;78.20;;;;;;5055974;28;20037;-72
2022/04/25 00:35:33;;;;;;;7.63;6.63;;;8.00;78.30;;;;;;5031552;28;20037;-71
2022/04/25 00:37:59;;;;;;;8.68;6.70;;;7.90;78.30;;;;;;4988346;28;20083;-72
2022/04/25 00:40:24;;;;;;;6.30;5.70;;;7.90;78.40;;;;;;5002425;28;20063;-72
2022/04/25 00:42:50;;;;;;;6.03;5.43;;;7.90;78.40;;;;;;4997227;28;20540;-73
2022/04/25 00:45:16;;;;;;;10.10;6.53;;;8.00;78.60;;;;;;4997166;28;20045;-72
2022/04/25 00:47:42;;;;;;;6.53;5.65;;;8.00;78.60;;;;;;5013043;28;20036;-71
2022/04/25 00:50:08;;;;;;;6.68;5.38;;;8.00;78.60;;;;;;5009153;28;20033;-72
2022/04/25 00:52:34;;;;;;;7.50;6.35;;;8.10;78.60;;;;;;4994753;28;20037;-71
2022/04/25 00:55:00;;;;;;;9.02;6.70;;;8.10;78.60;;;;;;5029841;28;20105;-72
2022/04/25 00:57:27;;;;;;;8.80;7.05;;;8.10;78.60;;;;;;4991612;28;20554;-71
2022/04/25 00:59:52;;;;;;;10.23;6.57;;;8.10;78.70;;;;;;5021629;28;20030;-72
2022/04/25 01:02:18;;;;;;;8.68;6.78;;;8.10;78.80;;;;;;4998531;28;20068;-71
2022/04/25 01:04:43;;;;;;;7.70;5.90;;;8.10;79.30;;;;;;5005271;28;20040;-71
2022/04/25 01:07:09;;;;;;;9.30;6.55;;;8.10;78.90;;;;;;5009899;28;20128;-71
2022/04/25 01:09:35;;;;;;;7.63;6.82;;;8.10;78.90;;;;;;4992340;28;20609;-72
2022/04/25 01:12:00;;;;;;;8.82;6.82;;;8.10;78.90;;;;;;5003779;28;20033;-71
2022/04/25 01:14:26;;;;;;;8.52;6.97;;;8.10;79.00;;;;;;5001066;28;20029;-71
2022/04/25 01:16:51;;;;;;;9.80;6.88;;;8.20;79.10;;;;;;5025168;28;20053;-71
2022/04/25 01:19:17;;;;;;;8.75;6.65;;;8.20;79.20;;;;;;5000772;28;20039;-71
2022/04/25 01:22:06;;;;;;;10.27;6.50;;;8.10;79.20;;;;;;4998632;28;20568;-71
2022/04/25 01:27:17;;;;;;;7.50;6.03;;;8.20;79.40;;;;;;4991068;28;20512;-71
2022/04/25 01:29:52;;;;;;;7.85;6.63;;;8.20;79.40;;;;;;4998107;28;20034;-72
2022/04/25 01:32:20;;;;;;;8.73;6.50;;;8.20;79.50;;;;;;5015262;28;20127;-71
2022/04/25 01:34:46;;;;;;;9.73;7.15;;;8.20;79.50;;;;;;4970000;28;20040;-71
2022/04/25 01:37:18;;;;;;;9.25;7.20;;;8.20;79.50;;;;;;5023173;28;20414;-71
2022/04/25 01:39:45;;;;;;;8.35;7.18;;;8.20;79.60;;;;;;5036923;28;20033;-72
2022/04/25 01:42:11;;;;;;;7.57;6.43;;;8.20;79.60;;;;;;5042975;28;20039;-72
2022/04/25 01:44:37;;;;;;;9.20;7.57;;;8.20;79.70;;;;;;5034261;28;20041;-72
2022/04/25 01:47:03;;;;;;;11.38;7.07;;;8.20;79.70;;;;;;5008864;28;20048;-72
2022/04/25 01:49:29;;;;;;;8.13;6.70;;;8.30;79.80;;;;;;5041874;28;20091;-72
2022/04/25 01:51:55;;;;;;;11.15;7.15;;;8.20;79.90;;;;;;5033690;28;20036;-72
2022/04/25 01:54:25;;;;;;;8.73;6.95;;;8.20;80.00;;;;;;5010422;28;20462;-72
2022/04/25 01:56:51;;;;;;;10.02;6.82;;;8.20;80.10;;;;;;5039682;28;20040;-71
2022/04/25 01:59:17;;;;;;;12.10;6.90;;;8.20;80.20;;;;;;5060845;28;20036;-71
2022/04/25 02:01:43;;;;;;;9.68;6.72;;;8.20;80.00;;;;;;5036425;28;20066;-73
2022/04/25 02:04:09;;;;;;;9.23;7.05;;;8.20;80.10;;;;;;5049912;28;20048;-72
2022/04/25 02:06:34;;;;;;;9.13;7.57;;;8.10;80.20;;;;;;5004913;28;20194;-73
2022/04/25 02:09:00;;;;;;;10.45;7.57;;;8.20;80.30;;;;;;5041416;28;20029;-72
2022/04/25 02:11:26;;;;;;;8.90;7.57;;;8.10;80.30;;;;;;5023954;28;20048;-71
2022/04/25 02:13:52;;;;;;;9.95;8.07;;;8.10;80.40;;;;;;5042254;28;20056;-71
2022/04/25 02:16:18;;;;;;;9.57;7.72;;;8.10;80.50;;;;;;5057330;28;20041;-72
2022/04/25 02:18:44;;;;;;;10.38;7.97;;;8.10;80.60;;;;;;5001393;28;20075;-72
2022/04/25 02:21:09;;;;;;;9.77;8.18;;;8.10;80.60;;;;;;5040779;28;20064;-72
2022/04/25 02:23:35;;;;;;;11.68;8.55;;;8.10;80.60;;;;;;5042755;28;20037;-71
2022/04/25 02:26:01;;;;;;;11.23;8.10;;;8.10;80.80;;;;;;5043411;28;20044;-72
2022/04/25 02:28:27;;;;;;;12.88;7.97;;;8.10;80.70;;;;;;5033971;28;20571;-71
2022/04/25 02:30:53;;;;;;;9.20;7.63;;;8.10;80.80;;;;;;5020078;28;20037;-72
2022/04/25 02:33:18;;;;;;;9.82;6.90;;;8.10;80.80;;;;;;5014229;28;20027;-71
2022/04/25 02:35:44;;;;;;;10.95;7.97;;;8.10;80.80;;;;;;5031167;28;20048;-71
2022/04/25 02:38:10;;;;;;;11.32;8.18;;;8.10;80.80;;;;;;5023244;28;20048;-72
2022/04/25 02:40:36;;;;;;;12.55;8.00;;;8.10;80.70;;;;;;5025616;28;20072;-72
2022/04/25 02:43:01;;;;;;;9.88;7.80;;;8.10;80.80;;;;;;5032158;28;20032;-71
2022/04/25 02:45:27;;;;;;;9.70;8.20;;;8.10;80.90;;;;;;5044599;28;20052;-71
2022/04/25 02:47:53;;;;;;;11.07;8.32;;;8.10;80.90;;;;;;5047966;28;20120;-72
2022/04/25 02:50:19;;;;;;;11.57;8.27;;;8.10;80.90;;;;;;5025814;28;20036;-71
2022/04/25 02:52:44;;;;;;;10.63;8.38;;;8.10;80.90;;;;;;5010899;28;20039;-72
2022/04/25 02:55:10;;;;;;;11.25;8.80;;;8.00;80.90;;;;;;5042369;28;20021;-72
2022/04/25 02:57:35;;;;;;;10.00;7.70;;;8.00;81.00;;;;;;5038806;28;20044;-72
2022/04/25 03:00:01;;;;;;;12.38;8.30;;;8.00;81.00;;;;;;5022368;28;20043;-72
2022/04/25 03:02:27;;;;;;;11.05;8.52;;;8.00;81.00;;;;;;5039766;28;20050;-73
2022/04/25 03:04:53;;;;;;;10.98;8.80;;;8.00;81.10;;;;;;5027480;28;20444;-72
2022/04/25 03:07:18;;;;;;;10.38;7.60;;;8.00;81.00;;;;;;5016523;28;20033;-72
2022/04/25 03:09:43;;;;;;;10.65;8.40;;;8.00;81.10;;;;;;5007434;28;20032;-71
2022/04/25 03:12:09;;;;;;;12.30;9.05;;;7.90;81.00;;;;;;5050813;28;20074;-73
2022/04/25 03:14:35;;;;;;;10.95;8.13;;;7.90;81.00;;;;;;5051145;28;20182;-72
2022/04/25 03:17:01;;;;;;;10.52;7.97;;;7.90;81.10;;;;;;5035677;28;20469;-72
2022/04/25 03:19:27;;;;;;;9.93;7.80;;;7.90;81.20;;;;;;5009901;28;20040;-71
2022/04/25 03:21:53;;;;;;;10.63;8.50;;;7.90;81.20;;;;;;5057993;28;20036;-72
2022/04/25 03:24:18;;;;;;;10.98;8.45;;;7.90;81.20;;;;;;5025857;28;20024;-71
2022/04/25 03:26:44;;;;;;;9.77;7.95;;;7.90;81.20;;;;;;5019726;28;20070;-71
2022/04/25 03:29:10;;;;;;;11.40;8.68;;;7.90;81.20;;;;;;5027735;28;20040;-73
2022/04/25 03:31:36;;;;;;;10.80;8.18;;;7.90;81.20;;;;;;5039857;28;20037;-72
2022/04/25 03:34:02;;;;;;;11.30;8.65;;;7.90;82.00;;;;;;4998669;28;20737;-72
2022/04/25 03:36:28;;;;;;;12.82;10.18;;;7.90;81.20;;;;;;5025883;28;20566;-72
2022/04/25 03:38:53;;;;;;;11.02;8.73;;;7.90;81.20;;;;;;5022517;28;20654;-72
2022/04/25 03:41:20;;;;;;;14.52;9.95;;;7.80;81.20;;;;;;4998354;28;20091;-72
2022/04/25 03:43:46;;;;;;;15.88;11.68;;;7.80;81.20;;;;;;5041372;28;20516;-73
2022/04/25 03:46:12;;;;;;;15.57;11.05;;;7.80;81.20;;;;;;5009715;28;20154;-71
2022/04/25 03:48:41;;;;;;;15.27;10.57;;;7.80;81.30;;;;;;4998460;28;20040;-71
2022/04/25 03:51:06;;;;;;;14.02;9.63;;;7.80;81.40;;;;;;5031083;28;20048;-72
2022/04/25 03:53:32;;;;;;;10.88;8.75;;;7.80;81.40;;;;;;5003626;28;20111;-71
2022/04/25 03:58:42;;;;;;;11.43;8.60;;;7.70;81.40;;;;;;5017529;28;20094;-74
2022/04/25 04:01:07;;;;;;;12.65;8.98;;;7.80;81.40;;;;;;5021933;28;20116;-72
2022/04/25 04:03:36;;;;;;;12.70;9.40;;;7.70;81.40;;;;;;5017000;28;20053;-71
2022/04/25 04:06:02;;;;;;;12.93;10.02;;;7.70;81.50;;;;;;4998546;28;20147;-73
2022/04/25 04:08:27;;;;;;;12.60;9.10;;;7.70;81.50;;;;;;5021385;28;20041;-72
2022/04/25 04:10:53;;;;;;;12.68;9.30;;;7.70;81.50;;;;;;5038035;28;20559;-72
2022/04/25 04:13:19;;;;;;;9.55;7.95;;;7.70;81.40;;;;;;5015118;28;20095;-71
2022/04/25 04:15:44;;;;;;;13.13;9.75;;;7.70;81.30;;;;;;5003878;28;20040;-71
2022/04/25 04:18:10;;;;;;;13.60;9.60;;;7.70;81.40;;;;;;5023838;28;20033;-72
2022/04/25 04:20:35;;;;;;;12.63;9.75;;;7.70;81.50;;;;;;5009774;28;21137;-72
2022/04/25 04:23:01;;;;;;;12.70;9.80;;;7.70;81.50;;;;;;5030531;28;20111;-72
2022/04/25 04:25:27;;;;;;;14.02;10.00;;;7.80;81.60;;;;;;5043498;28;20040;-72
2022/04/25 04:27:52;;;;;;;13.95;9.93;;;7.70;81.60;;;;;;5047840;28;20029;-71
2022/04/25 04:30:18;;;;;;;13.73;9.75;;;7.70;81.60;;;;;;5013544;28;20032;-73
2022/04/25 04:32:44;;;;;;;11.98;9.30;;;7.70;81.70;;;;;;5044356;28;20037;-72
2022/04/25 04:35:13;;;;;;;12.45;10.10;;;7.70;81.80;;;;;;5010055;28;20076;-72
2022/04/25 04:37:39;;;;;;;15.55;10.50;;;7.80;81.80;;;;;;4996640;28;20029;-71
2022/04/25 04:42:50;;;;;;;11.05;8.55;;;7.80;81.90;;;;;;5021281;28;20043;-73
2022/04/25 04:45:16;;;;;;;13.00;9.25;;;7.80;81.80;;;;;;5030598;28;21602;-72
2022/04/25 04:47:42;;;;;;;12.55;9.43;;;7.80;81.80;;;;;;5022989;28;20070;-71
2022/04/25 04:50:10;;;;;;;13.43;10.13;;;7.80;81.90;;;;;;5041581;28;20147;-71
2022/04/25 04:52:35;;;;;;;13.75;10.32;;;7.90;82.00;;;;;;5077631;28;20033;-71
2022/04/25 04:55:01;;;;;;;12.20;9.52;;;7.80;81.90;;;;;;5049046;28;20059;-72
2022/04/25 04:57:26;;;;;;;13.85;9.50;;;7.90;81.90;;;;;;5031207;28;20040;-72
2022/04/25 04:59:52;;;;;;;13.35;9.77;;;7.90;81.90;;;;;;5055019;28;20079;-71
2022/04/25 05:02:17;;;;;;;12.40;9.95;;;7.90;82.00;;;;;;5040301;28;20055;-71
2022/04/25 05:04:43;;;;;;;14.70;10.95;;;7.90;81.90;;;;;;5026169;28;20089;-72
2022/04/25 05:07:09;;;;;;;11.70;9.38;;;7.90;81.90;;;;;;5018208;28;20194;-71
2022/04/25 05:09:35;;;;;;;11.50;8.68;;;8.00;82.10;;;;;;5035353;28;20442;-71
2022/04/25 05:12:00;;;;;;;16.30;9.88;;;8.00;82.10;;;;;;5058528;28;20589;-72
2022/04/25 05:14:26;;;;;;;13.23;8.77;;;8.10;82.10;;;;;;5033863;28;20043;-71
2022/04/25 05:16:51;;;;;;;11.00;9.00;;;8.10;82.20;;;;;;5028840;28;20041;-74
2022/04/25 05:19:17;;;;;;;12.57;9.82;;;8.10;82.10;;;;;;5039885;28;20040;-72
2022/04/25 05:21:42;;;;;;;11.15;8.07;;;8.10;82.20;;;;;;5036550;28;20033;-72
2022/04/25 05:24:09;;;;;;;13.38;9.27;;;8.10;82.10;;;;;;5040212;28;20055;-71
2022/04/25 05:26:34;;;;;;;12.52;9.77;;;8.10;82.00;;;;;;5017265;28;20041;-73
2022/04/25 05:29:00;;;;;;;12.75;8.45;;;8.20;82.10;;;;;;5018941;28;20048;-72
2022/04/25 05:31:25;;;;;;;10.65;8.43;;;8.20;82.10;;;;;;5024378;28;20910;-73
2022/04/25 05:33:51;;;;;;;13.88;10.65;;;8.20;82.00;;;;;;5037193;28;20033;-73
2022/04/25 05:36:17;;;;;;;14.95;10.65;;;8.30;82.10;;;;;;5040963;28;20033;-73
2022/04/25 05:38:43;;;;;;;13.15;10.45;;;8.30;82.10;;;;;;4994169;28;20490;-72
2022/04/25 05:41:09;;;;;;;14.40;10.43;;;8.30;82.10;;;;;;5031802;28;20033;-72
2022/04/25 05:43:38;;;;;;;14.27;10.07;;;8.30;82.10;;;;;;5003900;28;20040;-72
2022/04/25 05:46:04;;;;;;;12.65;9.98;;;8.40;82.20;;;;;;5057772;28;20049;-73
2022/04/25 05:53:57;;;;;;;11.13;8.80;;;8.40;82.10;;;;;;5043958;28;20035;-73
2022/04/25 05:56:23;;;;;;;13.73;10.60;;;8.50;82.00;;;;;;5003734;28;20033;-72
2022/04/25 05:58:48;;;;;;;14.48;10.82;;;8.50;82.00;;;;;;5038801;28;20153;-73
2022/04/25 06:01:14;;;;;;;15.02;10.93;;;8.60;82.10;;;;;;5033307;28;20042;-73
2022/04/25 06:03:39;;;;;;;12.27;9.02;;;8.60;82.00;;;;;;5002983;28;20056;-72
2022/04/25 06:06:05;;;;;;;12.52;10.32;;;8.60;82.00;;;;;;5042733;28;20036;-72
2022/04/25 06:08:30;;;;;;;15.43;10.63;;;8.60;81.90;;;;;;5025102;28;20029;-72
2022/04/25 06:10:56;;;;;;;12.50;9.35;;;8.70;82.00;;;;;;5032503;28;20060;-73
2022/04/25 06:13:23;;;;;;;12.55;10.00;;;8.70;82.00;;;;;;5016514;28;20688;-72
2022/04/25 06:15:49;;;;;;;13.25;8.90;;;8.80;82.00;;;;;;5031137;28;20441;-74
2022/04/25 06:18:14;;;;;;;15.93;10.57;;;8.80;82.00;;;;;;5015743;28;20041;-73
2022/04/25 06:20:40;;;;;;;13.48;10.00;;;8.90;82.00;;;;;;5027814;28;20033;-73
2022/04/25 06:23:06;;;;;;;14.13;10.00;;;8.90;82.00;;;;;;5052662;28;20053;-72
2022/04/25 06:25:31;;;;;;;12.80;9.90;;;8.90;81.90;;;;;;5027150;28;20103;-73
2022/04/25 06:27:58;;;;;;;16.05;11.23;;;8.90;82.00;;;;;;4995473;28;20119;-74
2022/04/25 06:30:28;;;;;;;11.95;9.15;;;9.00;82.10;;;;;;5020408;28;20032;-73
2022/04/25 06:32:53;;;;;;;12.35;9.35;;;9.00;82.10;;;;;;5010988;28;20048;-73
2022/04/25 06:35:22;;;;;;;14.30;9.93;;;9.10;82.10;;;;;;5023997;28;20468;-73
2022/04/25 06:37:48;;;;;;;14.23;10.10;;;9.10;82.00;;;;;;5033628;28;20055;-72
2022/04/25 06:40:14;;;;;;;10.63;8.30;;;9.20;82.00;;;;;;5025009;28;20025;-73
2022/04/25 06:42:39;;;;;;;13.57;10.45;;;9.20;81.90;;;;;;5025148;28;20037;-72
2022/04/25 06:45:05;;;;;;;11.55;8.55;;;9.30;81.90;;;;;;5059915;28;20040;-72
2022/04/25 06:47:31;;;;;;;13.18;9.75;;;9.40;81.80;;;;;;4999083;28;20036;-73
2022/04/25 06:49:56;;;;;;;14.65;10.98;;;9.40;81.70;;;;;;5018100;28;20047;-75
2022/04/25 06:52:22;;;;;;;17.50;11.70;;;9.50;81.80;;;;;;5038606;28;20250;-72
2022/04/25 06:54:47;;;;;;;13.70;10.82;;;9.60;81.70;;;;;;5020271;28;20037;-73
2022/04/25 06:57:13;;;;;;;15.48;11.00;;;9.60;81.60;;;;;;5040586;28;20045;-72
2022/04/25 06:59:39;;;;;;;15.48;11.25;;;9.70;81.60;;;;;;5021265;28;20041;-73
2022/04/25 07:02:04;;;;;;;10.43;8.10;;;9.80;81.60;;;;;;5009681;28;20067;-72
2022/04/25 07:04:30;;;;;;;13.45;9.95;;;9.80;81.50;;;;;;4998835;28;20052;-73
2022/04/25 07:06:55;;;;;;;12.30;9.60;;;9.90;81.30;;;;;;5030923;28;20044;-73
2022/04/25 07:09:21;;;;;;;15.85;11.02;;;9.90;81.20;;;;;;5043055;28;20045;-73
2022/04/25 07:11:47;;;;;;;10.95;8.52;;;10.00;81.10;;;;;;5014277;28;20100;-73
2022/04/25 07:14:14;;;;;;;13.68;10.20;;;10.10;81.10;;;;;;5022234;28;20037;-73
2022/04/25 07:16:40;;;;;;;19.10;10.85;;;10.10;81.00;;;;;;5042926;28;20475;-73
2022/04/25 07:19:06;;;;;;;11.38;8.88;;;10.20;80.90;;;;;;5023551;28;20156;-73
2022/04/25 07:29:48;;;;;;;16.65;11.43;;;10.50;80.50;;;;;;5037604;28;20121;-74
2022/04/25 07:32:14;;;;;;;15.73;11.60;;;10.50;80.40;;;;;;5039631;28;20064;-72
2022/04/25 07:34:41;;;;;;;18.08;12.02;;;10.60;80.40;;;;;;5023592;28;20052;-72
2022/04/25 07:37:07;;;;;;;18.08;12.80;;;10.60;80.20;;;;;;5030893;28;20115;-74
2022/04/25 07:39:32;;;;;;;14.75;10.48;;;10.70;80.20;;;;;;5043881;28;20127;-72
2022/04/25 07:41:58;;;;;;;16.52;11.02;;;10.80;80.10;;;;;;5007736;28;20126;-73
2022/04/25 07:44:24;;;;;;;12.98;9.90;;;10.90;79.90;;;;;;5018211;28;20030;-72
2022/04/25 07:46:50;;;;;;;13.05;9.55;;;11.00;79.70;;;;;;5034699;28;20059;-72
2022/04/25 07:49:16;;;;;;;18.60;11.30;;;11.00;79.40;;;;;;5052979;28;20086;-72
2022/04/25 07:51:41;;;;;;;12.82;10.25;;;11.10;79.20;;;;;;4980596;28;20033;-73
2022/04/25 07:54:08;;;;;;;13.52;10.70;;;11.20;79.10;;;;;;5042820;28;20060;-72
2022/04/25 07:56:34;;;;;;;12.63;9.82;;;11.20;79.60;;;;;;5013541;28;20174;-72
2022/04/25 07:59:02;;;;;;;13.05;10.05;;;11.30;78.70;;;;;;5062721;28;20435;-73
2022/04/25 08:01:28;;;;;;;17.80;12.50;;;11.40;78.60;;;;;;5033105;28;20067;-72
2022/04/25 08:03:56;;;;;;;15.02;11.90;;;11.50;78.50;;;;;;5064613;28;20082;-73
2022/04/25 08:06:22;;;;;;;14.48;11.60;;;11.70;78.60;;;;;;5014000;28;20037;-72
2022/04/25 08:08:51;;;;;;;15.98;10.93;;;11.80;78.30;;;;;;5037491;28;20052;-73
2022/04/25 08:11:17;;;;;;;13.52;10.68;;;12.00;78.20;;;;;;5045388;28;20037;-73
2022/04/25 08:19:13;;;;;;;13.65;9.82;;;12.70;77.60;;;;;;4985428;28;20128;-74
2022/04/25 08:21:39;;;;;;;10.52;7.70;;;13.00;77.40;;;;;;5043261;28;20078;-73
2022/04/25 08:24:05;;;;;;;10.48;8.63;;;13.20;77.00;;;;;;5043678;28;20041;-73
2022/04/25 08:26:30;;;;;;;10.60;8.13;;;13.50;76.50;;;;;;5023110;28;20049;-73
2022/04/25 08:28:56;;;;;;;11.90;8.80;;;13.60;75.90;;;;;;5034541;28;20036;-73
2022/04/25 08:31:22;;;;;;;11.25;8.68;;;13.80;75.50;;;;;;5032683;28;20037;-73
2022/04/25 08:33:48;;;;;;;8.25;7.05;;;13.90;74.90;;;;;;5014753;28;20041;-75
2022/04/25 08:36:18;;;;;;;10.52;8.38;;;14.00;74.60;;;;;;5029799;28;20528;-73
2022/04/25 08:38:44;;;;;;;10.48;7.75;;;14.20;74.40;;;;;;5035251;28;20040;-73
2022/04/25 08:41:12;;;;;;;11.70;8.48;;;14.30;74.00;;;;;;5029443;28;20045;-75
2022/04/25 08:43:38;;;;;;;8.45;7.05;;;14.40;73.60;;;;;;5042479;28;20037;-74
2022/04/25 08:46:07;;;;;;;7.82;6.45;;;14.50;73.20;;;;;;5060621;28;20140;-74
2022/04/25 08:48:33;;;;;;;9.43;6.63;;;14.50;72.70;;;;;;5025320;28;20041;-74
2022/04/25 08:50:58;;;;;;;6.47;5.55;;;14.60;72.40;;;;;;5032349;28;20371;-74
2022/04/25 08:53:24;;;;;;;8.30;6.03;;;14.60;72.00;;;;;;5032627;28;20037;-73
2022/04/25 08:55:50;;;;;;;6.68;5.57;;;14.60;71.90;;;;;;5025272;28;20037;-75
2022/04/25 08:58:15;;;;;;;7.70;5.85;;;14.60;71.60;;;;;;5011915;28;20040;-73
2022/04/25 09:00:42;;;;;;;8.02;5.53;;;14.60;71.30;;;;;;5025222;28;20037;-74
2022/04/25 09:03:08;;;;;;;5.55;4.90;;;14.60;71.00;;;;;;5042922;28;20549;-74
2022/04/25 09:05:36;;;;;;;5.63;4.95;;;14.70;70.90;;;;;;5048267;28;20112;-73
2022/04/25 09:08:01;;;;;;;5.93;4.93;;;14.80;70.60;;;;;;5017260;28;20097;-73
2022/04/25 09:10:27;;;;;;;5.43;4.22;;;14.80;70.40;;;;;;5032155;28;20037;-74
2022/04/25 09:12:53;;;;;;;7.72;3.95;;;14.90;70.20;;;;;;5031811;28;20038;-73
2022/04/25 09:15:21;;;;;;;5.13;4.00;;;14.90;69.90;;;;;;5007839;28;20024;-74
2022/04/25 09:17:46;;;;;;;6.72;4.32;;;15.00;69.50;;;;;;5032462;28;20406;-74
2022/04/25 09:20:12;;;;;;;4.68;3.78;;;15.10;69.20;;;;;;5025665;28;20055;-74
2022/04/25 09:22:42;;;;;;;3.92;3.53;;;15.10;68.80;;;;;;5026844;28;20060;-73
2022/04/25 09:25:15;;;;;;;4.75;3.92;;;15.20;68.60;;;;;;5032774;28;20474;-73
2022/04/25 09:27:41;;;;;;;5.38;3.60;;;15.20;68.20;;;;;;5042103;28;20040;-74
2022/04/25 09:30:20;;;;;;;3.38;3.08;;;15.30;68.10;;;;;;5025406;28;20051;-73
2022/04/25 09:32:52;;;;;;;3.47;2.97;;;15.30;67.30;;;;;;5031312;28;20152;-73
2022/04/25 09:35:28;;;;;;;4.55;3.00;;;15.40;67.20;;;;;;5036467;28;20041;-74
2022/04/25 09:37:54;;;;;;;2.85;2.65;;;15.40;67.00;;;;;;4985882;28;20117;-74
2022/04/25 09:40:23;;;;;;;2.53;2.33;;;15.50;67.00;;;;;;4969247;28;20125;-74
2022/04/25 09:43:12;;;;;;;4.53;2.80;;;15.50;67.60;;;;;;5022181;28;20144;-73
2022/04/25 09:45:42;;;;;;;2.40;2.20;;;15.50;66.00;;;;;;5016707;28;20045;-74
2022/04/25 09:48:12;;;;;;;2.58;2.33;;;15.70;66.50;;;;;;5000054;28;20514;-73
2022/04/25 09:50:38;;;;;;;3.13;2.33;;;16.00;66.30;;;;;;4984051;28;20050;-74
2022/04/25 09:53:04;;;;;;;2.45;2.10;;;16.30;65.60;;;;;;5038412;28;20120;-73
2022/04/25 09:55:32;;;;;;;3.05;2.60;;;16.60;65.20;;;;;;5029065;28;21098;-73
2022/04/25 09:57:57;;;;;;;2.58;2.38;;;16.80;64.80;;;;;;4984823;28;20031;-73
2022/04/25 10:00:38;;;;;;;3.10;2.40;;;17.10;64.60;;;;;;5014123;28;20030;-73
2022/04/25 10:03:07;;;;;;;2.22;2.03;;;17.30;62.60;;;;;;5027701;28;20663;-74
2022/04/25 10:05:42;;;;;;;2.45;2.22;;;17.40;62.90;;;;;;5021405;28;20100;-73
2022/04/25 10:08:09;;;;;;;2.83;2.58;;;17.50;62.40;;;;;;5033325;28;20034;-74
2022/04/25 10:10:38;;;;;;;2.72;2.53;;;17.50;62.30;;;;;;5007972;28;20037;-75
2022/04/25 10:13:03;;;;;;;2.90;2.55;;;17.60;62.10;;;;;;5009385;28;20034;-73
2022/04/25 10:15:29;;;;;;;2.78;2.45;;;17.60;61.70;;;;;;4995230;28;20037;-73
2022/04/25 10:17:54;;;;;;;3.65;3.35;;;17.60;61.50;;;;;;4986054;28;20042;-73
2022/04/25 10:20:20;;;;;;;3.13;2.78;;;17.50;61.20;;;;;;4994661;28;20061;-71
2022/04/25 10:22:46;;;;;;;4.38;3.38;;;17.60;61.50;;;;;;4994409;28;20034;-72
2022/04/25 10:25:12;;;;;;;4.63;3.80;;;17.70;61.30;;;;;;5026993;28;20410;-72
2022/04/25 10:27:38;;;;;;;3.85;3.55;;;17.60;61.20;;;;;;5038954;28;20048;-72
2022/04/25 10:30:16;;;;;;;3.40;3.10;;;17.60;61.20;;;;;;5000887;28;20815;-72
2022/04/25 10:32:41;;;;;;;4.20;3.88;;;17.60;60.70;;;;;;4985946;28;20038;-72
2022/04/25 10:35:15;;;;;;;4.43;3.65;;;17.60;61.10;;;;;;4986163;28;20041;-72
2022/04/25 10:37:41;;;;;;;4.60;3.17;;;17.60;60.70;;;;;;5028013;28;20036;-73
2022/04/25 10:40:12;;;;;;;3.58;3.08;;;17.60;60.70;;;;;;5018434;28;20029;-72
2022/04/25 10:45:58;;;;;;;3.60;3.30;;;17.60;60.00;;;;;;5043009;28;20048;-72
2022/04/25 10:48:25;;;;;;;3.78;3.38;;;17.60;60.40;;;;;;5023871;28;20166;-72
2022/04/25 10:51:12;;;;;;;3.90;3.30;;;17.60;60.20;;;;;;5007342;28;20045;-72
2022/04/25 10:53:56;;;;;;;4.13;3.72;;;17.70;59.50;;;;;;5017467;28;20062;-72
2022/04/25 10:56:22;;;;;;;3.30;3.00;;;17.70;59.30;;;;;;5050479;28;20033;-72
2022/04/25 10:59:23;;;;;;;3.25;2.95;;;17.70;59.90;;;;;;5048129;28;20037;-73
2022/04/25 11:01:49;;;;;;;3.90;3.60;;;17.80;59.10;;;;;;5039828;28;20063;-73
2022/04/25 11:04:15;;;;;;;4.18;3.78;;;17.80;59.50;;;;;;5036865;28;20063;-72
2022/04/25 11:06:41;;;;;;;2.63;2.42;;;17.80;59.30;;;;;;5032665;28;20056;-72
2022/04/25 11:09:06;;;;;;;2.90;2.70;;;17.80;59.20;;;;;;5026483;28;20025;-72
2022/04/25 11:11:48;;;;;;;3.22;2.92;;;17.70;59.20;;;;;;4980183;28;20454;-72
2022/04/25 11:14:15;;;;;;;2.80;2.22;;;17.60;58.60;;;;;;5037891;28;20045;-72
2022/04/25 11:16:40;;;;;;;2.60;2.40;;;17.60;59.10;;;;;;5024942;28;20135;-72
2022/04/25 11:19:10;;;;;;;3.05;2.47;;;17.60;59.10;;;;;;5026918;28;20606;-72
2022/04/25 11:21:36;;;;;;;2.58;2.38;;;17.70;58.90;;;;;;5051241;28;20075;-72
2022/04/25 11:24:02;;;;;;;2.45;2.25;;;17.70;58.80;;;;;;5044226;28;20037;-72
2022/04/25 11:26:33;;;;;;;2.13;1.92;;;17.70;58.80;;;;;;5034251;28;20069;-72
2022/04/25 11:29:08;;;;;;;4.50;2.58;;;17.80;58.70;;;;;;5040570;28;20809;-73
2022/04/25 11:31:38;;;;;;;2.40;2.20;;;17.90;58.60;;;;;;5018659;28;20028;-72
2022/04/25 11:34:07;;;;;;;2.22;2.03;;;18.20;58.60;;;;;;5006885;28;20041;-73
2022/04/25 11:36:46;;;;;;;3.05;2.22;;;18.30;58.00;;;;;;5015783;28;20239;-71
2022/04/25 11:41:59;;;;;;;4.63;1.77;;;18.80;58.00;;;;;;5044597;28;20831;-73
2022/04/25 11:44:25;;;;;;;3.55;2.13;;;19.00;57.70;;;;;;5022019;28;20037;-73
2022/04/25 11:46:51;;;;;;;2.65;1.98;;;19.10;57.20;;;;;;5059484;28;20116;-72
2022/04/25 11:49:38;;;;;;;2.45;2.25;;;19.30;56.90;;;;;;5040467;28;20515;-72
2022/04/25 11:52:04;;;;;;;3.95;1.90;;;19.50;55.80;;;;;;5020794;28;20053;-72
2022/04/25 11:54:32;;;;;;;3.50;1.90;;;19.60;56.20;;;;;;5043734;28;20032;-72
2022/04/25 11:57:01;;;;;;;1.88;1.70;;;19.80;56.10;;;;;;5039673;28;20090;-73
2022/04/25 11:59:26;;;;;;;2.15;1.80;;;19.80;55.60;;;;;;5007710;28;20068;-73
2022/04/25 12:01:52;;;;;;;1.83;1.70;;;19.80;55.80;;;;;;5039880;28;20064;-72
2022/04/25 12:04:21;;;;;;;2.15;2.00;;;19.80;55.30;;;;;;5057725;28;20089;-72
2022/04/25 12:06:53;;;;;;;2.05;1.85;;;19.70;55.00;;;;;;5033490;28;20152;-72
2022/04/25 12:17:39;;;;;;;2.10;1.90;;;20.00;54.60;;;;;;5043353;28;20036;-73
2022/04/25 12:20:09;;;;;;;1.50;1.40;;;20.00;54.50;;;;;;5033723;28;20048;-72
2022/04/25 12:22:36;;;;;;;4.07;2.10;;;20.10;54.50;;;;;;5047053;28;20068;-73
2022/04/25 12:25:18;;;;;;;1.98;1.77;;;20.30;54.20;;;;;;5041237;28;20513;-72
2022/04/25 12:28:20;;;;;;;1.80;1.70;;;20.30;53.20;;;;;;5056910;28;20047;-73
2022/04/25 12:30:52;;;;;;;2.17;1.98;;;20.40;53.20;;;;;;4947800;28;20028;-72
2022/04/25 12:33:19;;;;;;;6.15;1.70;;;20.50;53.40;;;;;;4950366;28;20027;-72
2022/04/25 12:35:45;;;;;;;2.10;1.98;;;20.60;53.50;;;;;;4940252;28;20611;-73
2022/04/25 12:38:26;;;;;;;2.35;1.58;;;20.80;53.30;;;;;;4922145;28;20051;-73
2022/04/25 12:40:55;;;;;;;1.65;1.55;;;21.00;53.10;;;;;;4944115;28;20070;-72
2022/04/25 12:43:42;;;;;;;1.90;1.73;;;21.20;52.80;;;;;;4944790;28;20097;-73
2022/04/25 12:46:08;;;;;;;2.10;1.80;;;21.50;51.60;;;;;;4961295;28;20051;-72
2022/04/25 12:48:59;;;;;;;2.47;1.88;;;21.70;52.10;;;;;;4949714;28;20074;-73
2022/04/25 12:51:38;;;;;;;2.23;2.00;;;21.90;50.90;;;;;;4953018;28;20038;-72
2022/04/25 12:54:05;;;;;;;1.70;1.60;;;22.10;51.10;;;;;;4936884;28;20031;-72
2022/04/25 12:56:33;;;;;;;3.92;2.20;;;22.30;51.20;;;;;;4938635;28;20027;-72
2022/04/25 12:58:59;;;;;;;1.70;1.60;;;22.40;50.90;;;;;;4949641;28;20666;-72
2022/04/25 13:01:29;;;;;;;1.75;1.65;;;22.30;50.40;;;;;;4933001;28;20082;-73
2022/04/25 13:04:09;;;;;;;2.15;1.95;;;22.30;50.40;;;;;;4940240;28;20031;-72
2022/04/25 13:06:36;;;;;;;2.17;1.80;;;22.30;49.00;;;;;;5011987;28;20653;-76
2022/04/25 13:09:02;;;;;;;2.10;1.90;;;22.20;50.00;;;;;;5014801;28;20144;-74
2022/04/25 13:11:28;;;;;;;2.10;1.90;;;22.00;50.20;;;;;;5059812;28;20067;-73
2022/04/25 13:13:53;;;;;;;2.40;1.83;;;22.10;50.30;;;;;;5050019;28;20043;-72
2022/04/25 13:16:19;;;;;;;2.40;1.90;;;22.20;50.40;;;;;;5022585;28;20037;-72
2022/04/25 13:18:44;;;;;;;1.90;1.80;;;22.50;50.20;;;;;;5026892;28;20082;-73
2022/04/25 13:21:12;;;;;;;1.70;1.38;;;22.60;49.90;;;;;;5022247;28;20443;-72
2022/04/25 13:23:38;;;;;;;1.73;1.63;;;22.70;49.70;;;;;;5025202;28;20067;-75
2022/04/25 13:26:03;;;;;;;2.08;1.85;;;22.70;49.50;;;;;;5026154;28;20037;-72
2022/04/25 13:28:29;;;;;;;1.67;1.58;;;22.70;49.20;;;;;;5003199;28;20032;-72